sensor_id;sensor_type;location;lat;lon;timestamp;P1;durP1;ratioP1;P2;durP2;ratioP2
4597;SDS011;62772;48.646;8.906;2023-05-27T00:03:33;16.07;;;6.10;;
4597;SDS011;62772;48.646;8.906;2023-05-27T00:08:33;13.47;;;6.10;;
4597;SDS011;62772;48.646;8.906;2023-05-27T00:13:34;13.83;;;5.87;;
4597;SDS011;62772;48.646;8.906;2023-05-27T00:18:34;12.10;;;6.23;;
4597;SDS011;62772;48.646;8.906;2023-05-27T00:23:35;10.10;;;5.60;;
4597;SDS011;62772;48.646;8.906;2023-05-27T00:28:36;12.13;;;5.73;;
4597;SDS011;62772;48.646;8.906;2023-05-27T00:33:36;10.77;;;5.87;;
4597;SDS011;62772;48.646;8.906;2023-05-27T00:38:37;10.37;;;5.20;;
4597;SDS011;62772;48.646;8.906;2023-05-27T00:43:38;14.63;;;5.30;;
4597;SDS011;62772;48.646;8.906;2023-05-27T00:48:39;9.97;;;4.80;;
4597;SDS011;62772;48.646;8.906;2023-05-27T00:53:40;13.03;;;5.70;;
4597;SDS011;62772;48.646;8.906;2023-05-27T00:58:42;10.97;;;4.80;;
4597;SDS011;62772;48.646;8.906;2023-05-27T01:03:46;11.07;;;4.83;;
4597;SDS011;62772;48.646;8.906;2023-05-27T01:13:59;20.70;;;5.10;;
4597;SDS011;62772;48.646;8.906;2023-05-27T01:19:06;12.60;;;5.17;;
4597;SDS011;62772;48.646;8.906;2023-05-27T01:24:11;9.63;;;4.80;;
4597;SDS011;62772;48.646;8.906;2023-05-27T01:29:12;13.77;;;5.13;;
4597;SDS011;62772;48.646;8.906;2023-05-27T01:34:14;12.10;;;5.37;;
4597;SDS011;62772;48.646;8.906;2023-05-27T01:39:18;12.30;;;4.87;;
4597;SDS011;62772;48.646;8.906;2023-05-27T01:44:19;18.37;;;5.80;;
4597;SDS011;62772;48.646;8.906;2023-05-27T01:49:21;14.60;;;5.30;;
4597;SDS011;62772;48.646;8.906;2023-05-27T01:54:21;11.20;;;5.50;;
4597;SDS011;62772;48.646;8.906;2023-05-27T01:59:22;13.83;;;5.17;;
4597;SDS011;62772;48.646;8.906;2023-05-27T02:04:23;13.57;;;5.20;;
4597;SDS011;62772;48.646;8.906;2023-05-27T02:09:23;18.03;;;5.23;;
4597;SDS011;62772;48.646;8.906;2023-05-27T02:14:24;12.03;;;5.53;;
4597;SDS011;62772;48.646;8.906;2023-05-27T02:19:24;18.27;;;5.10;;
4597;SDS011;62772;48.646;8.906;2023-05-27T02:24:25;9.50;;;4.93;;
4597;SDS011;62772;48.646;8.906;2023-05-27T02:29:26;10.60;;;4.80;;
4597;SDS011;62772;48.646;8.906;2023-05-27T02:34:26;16.30;;;5.10;;
4597;SDS011;62772;48.646;8.906;2023-05-27T02:39:27;14.73;;;5.10;;
4597;SDS011;62772;48.646;8.906;2023-05-27T02:44:27;11.57;;;5.50;;
4597;SDS011;62772;48.646;8.906;2023-05-27T02:49:27;10.00;;;5.23;;
4597;SDS011;62772;48.646;8.906;2023-05-27T02:54:28;9.27;;;5.17;;
4597;SDS011;62772;48.646;8.906;2023-05-27T02:59:28;16.00;;;4.90;;
4597;SDS011;62772;48.646;8.906;2023-05-27T03:04:29;9.80;;;5.40;;
4597;SDS011;62772;48.646;8.906;2023-05-27T03:09:30;10.80;;;5.20;;
4597;SDS011;62772;48.646;8.906;2023-05-27T03:14:32;8.77;;;5.07;;
4597;SDS011;62772;48.646;8.906;2023-05-27T03:19:32;13.63;;;5.47;;
4597;SDS011;62772;48.646;8.906;2023-05-27T03:24:33;10.47;;;5.63;;
4597;SDS011;62772;48.646;8.906;2023-05-27T03:29:34;9.87;;;5.10;;
4597;SDS011;62772;48.646;8.906;2023-05-27T03:34:36;10.43;;;5.70;;
4597;SDS011;62772;48.646;8.906;2023-05-27T03:39:36;11.53;;;4.83;;
4597;SDS011;62772;48.646;8.906;2023-05-27T03:44:37;12.27;;;5.80;;
4597;SDS011;62772;48.646;8.906;2023-05-27T03:49:37;10.47;;;5.10;;
4597;SDS011;62772;48.646;8.906;2023-05-27T03:54:38;13.27;;;5.63;;
4597;SDS011;62772;48.646;8.906;2023-05-27T03:59:38;11.83;;;5.63;;
4597;SDS011;62772;48.646;8.906;2023-05-27T04:04:39;12.77;;;5.00;;
4597;SDS011;62772;48.646;8.906;2023-05-27T04:09:39;11.83;;;5.47;;
4597;SDS011;62772;48.646;8.906;2023-05-27T04:14:40;13.37;;;5.27;;
4597;SDS011;62772;48.646;8.906;2023-05-27T04:19:40;10.00;;;5.40;;
4597;SDS011;62772;48.646;8.906;2023-05-27T04:24:41;12.73;;;5.57;;
4597;SDS011;62772;48.646;8.906;2023-05-27T04:29:43;14.67;;;6.27;;
4597;SDS011;62772;48.646;8.906;2023-05-27T04:34:45;13.63;;;5.60;;
4597;SDS011;62772;48.646;8.906;2023-05-27T04:39:47;9.33;;;5.27;;
4597;SDS011;62772;48.646;8.906;2023-05-27T04:44:49;15.53;;;5.40;;
4597;SDS011;62772;48.646;8.906;2023-05-27T04:49:52;14.63;;;5.60;;
4597;SDS011;62772;48.646;8.906;2023-05-27T04:54:52;16.57;;;6.43;;
4597;SDS011;62772;48.646;8.906;2023-05-27T05:00:07;17.93;;;6.53;;
4597;SDS011;62772;48.646;8.906;2023-05-27T05:05:11;14.90;;;6.57;;
4597;SDS011;62772;48.646;8.906;2023-05-27T05:10:12;15.43;;;6.20;;
4597;SDS011;62772;48.646;8.906;2023-05-27T05:15:22;12.07;;;5.57;;
4597;SDS011;62772;48.646;8.906;2023-05-27T05:20:24;12.43;;;5.43;;
4597;SDS011;62772;48.646;8.906;2023-05-27T05:25:25;12.70;;;5.90;;
4597;SDS011;62772;48.646;8.906;2023-05-27T05:30:28;15.93;;;5.90;;
4597;SDS011;62772;48.646;8.906;2023-05-27T05:35:29;17.17;;;6.00;;
4597;SDS011;62772;48.646;8.906;2023-05-27T05:40:42;13.63;;;5.93;;
4597;SDS011;62772;48.646;8.906;2023-05-27T05:45:50;15.93;;;5.83;;
4597;SDS011;62772;48.646;8.906;2023-05-27T05:50:53;12.97;;;5.87;;
4597;SDS011;62772;48.646;8.906;2023-05-27T05:55:53;13.40;;;5.90;;
4597;SDS011;62772;48.646;8.906;2023-05-27T06:00:54;17.43;;;5.93;;
4597;SDS011;62772;48.646;8.906;2023-05-27T06:06:11;14.97;;;5.70;;
4597;SDS011;62772;48.646;8.906;2023-05-27T06:11:32;15.57;;;6.07;;
4597;SDS011;62772;48.646;8.906;2023-05-27T06:16:33;17.20;;;5.90;;
4597;SDS011;62772;48.646;8.906;2023-05-27T06:21:36;18.77;;;5.43;;
4597;SDS011;62772;48.646;8.906;2023-05-27T06:27:01;11.03;;;5.93;;
4597;SDS011;62772;48.646;8.906;2023-05-27T06:32:02;15.03;;;6.03;;
4597;SDS011;62772;48.646;8.906;2023-05-27T06:37:03;17.30;;;5.80;;
4597;SDS011;62772;48.646;8.906;2023-05-27T06:42:04;11.70;;;5.77;;
4597;SDS011;62772;48.646;8.906;2023-05-27T06:47:27;21.60;;;6.10;;
4597;SDS011;62772;48.646;8.906;2023-05-27T06:52:28;14.30;;;6.07;;
4597;SDS011;62772;48.646;8.906;2023-05-27T06:57:43;17.10;;;5.50;;
4597;SDS011;62772;48.646;8.906;2023-05-27T07:02:53;15.73;;;6.17;;
4597;SDS011;62772;48.646;8.906;2023-05-27T07:07:54;14.93;;;5.37;;
4597;SDS011;62772;48.646;8.906;2023-05-27T07:12:54;12.90;;;5.70;;
4597;SDS011;62772;48.646;8.906;2023-05-27T07:18:00;17.93;;;5.70;;
4597;SDS011;62772;48.646;8.906;2023-05-27T07:23:01;18.13;;;5.87;;
4597;SDS011;62772;48.646;8.906;2023-05-27T07:28:03;12.83;;;5.60;;
4597;SDS011;62772;48.646;8.906;2023-05-27T07:33:04;16.17;;;5.63;;
4597;SDS011;62772;48.646;8.906;2023-05-27T07:38:05;19.43;;;6.40;;
4597;SDS011;62772;48.646;8.906;2023-05-27T07:43:05;14.03;;;5.60;;
4597;SDS011;62772;48.646;8.906;2023-05-27T07:48:07;11.10;;;5.97;;
4597;SDS011;62772;48.646;8.906;2023-05-27T07:53:08;11.23;;;5.40;;
4597;SDS011;62772;48.646;8.906;2023-05-27T07:58:11;18.87;;;5.90;;
4597;SDS011;62772;48.646;8.906;2023-05-27T08:03:34;14.57;;;6.47;;
4597;SDS011;62772;48.646;8.906;2023-05-27T08:08:50;10.47;;;6.27;;
4597;SDS011;62772;48.646;8.906;2023-05-27T08:14:11;24.00;;;5.67;;
4597;SDS011;62772;48.646;8.906;2023-05-27T08:19:45;13.03;;;5.67;;
4597;SDS011;62772;48.646;8.906;2023-05-27T08:24:54;14.27;;;6.47;;
4597;SDS011;62772;48.646;8.906;2023-05-27T08:30:15;12.87;;;5.87;;
4597;SDS011;62772;48.646;8.906;2023-05-27T08:35:28;11.47;;;6.30;;
4597;SDS011;62772;48.646;8.906;2023-05-27T08:40:29;18.70;;;6.67;;
4597;SDS011;62772;48.646;8.906;2023-05-27T08:45:30;14.00;;;6.03;;
4597;SDS011;62772;48.646;8.906;2023-05-27T08:50:32;12.27;;;6.60;;
4597;SDS011;62772;48.646;8.906;2023-05-27T08:55:32;14.83;;;6.40;;
4597;SDS011;62772;48.646;8.906;2023-05-27T09:00:33;14.73;;;6.80;;
4597;SDS011;62772;48.646;8.906;2023-05-27T09:05:46;13.93;;;6.47;;
4597;SDS011;62772;48.646;8.906;2023-05-27T09:10:46;13.40;;;6.80;;
4597;SDS011;62772;48.646;8.906;2023-05-27T09:15:47;13.13;;;6.87;;
4597;SDS011;62772;48.646;8.906;2023-05-27T09:20:47;14.07;;;6.57;;
4597;SDS011;62772;48.646;8.906;2023-05-27T09:25:48;12.20;;;6.33;;
4597;SDS011;62772;48.646;8.906;2023-05-27T09:30:59;13.27;;;6.40;;
4597;SDS011;62772;48.646;8.906;2023-05-27T09:36:02;14.20;;;6.27;;
4597;SDS011;62772;48.646;8.906;2023-05-27T09:41:03;15.10;;;6.90;;
4597;SDS011;62772;48.646;8.906;2023-05-27T09:46:07;13.13;;;6.90;;
4597;SDS011;62772;48.646;8.906;2023-05-27T09:51:12;17.07;;;9.27;;
4597;SDS011;62772;48.646;8.906;2023-05-27T09:56:13;13.87;;;7.03;;
4597;SDS011;62772;48.646;8.906;2023-05-27T10:01:14;16.63;;;6.77;;
4597;SDS011;62772;48.646;8.906;2023-05-27T10:06:17;19.53;;;6.60;;
4597;SDS011;62772;48.646;8.906;2023-05-27T10:11:18;12.33;;;6.70;;
4597;SDS011;62772;48.646;8.906;2023-05-27T10:16:19;14.73;;;6.70;;
4597;SDS011;62772;48.646;8.906;2023-05-27T10:21:22;15.30;;;6.87;;
4597;SDS011;62772;48.646;8.906;2023-05-27T10:26:44;19.47;;;6.60;;
4597;SDS011;62772;48.646;8.906;2023-05-27T10:36:58;11.50;;;6.70;;
4597;SDS011;62772;48.646;8.906;2023-05-27T10:42:02;14.50;;;5.87;;
4597;SDS011;62772;48.646;8.906;2023-05-27T10:47:12;14.03;;;6.47;;
4597;SDS011;62772;48.646;8.906;2023-05-27T10:52:15;12.40;;;6.97;;
4597;SDS011;62772;48.646;8.906;2023-05-27T10:57:16;17.07;;;6.60;;
4597;SDS011;62772;48.646;8.906;2023-05-27T11:02:17;12.93;;;6.87;;
4597;SDS011;62772;48.646;8.906;2023-05-27T11:07:19;13.93;;;6.60;;
4597;SDS011;62772;48.646;8.906;2023-05-27T11:12:20;14.27;;;7.07;;
4597;SDS011;62772;48.646;8.906;2023-05-27T11:17:23;19.53;;;7.00;;
4597;SDS011;62772;48.646;8.906;2023-05-27T11:22:31;14.03;;;6.40;;
4597;SDS011;62772;48.646;8.906;2023-05-27T11:27:35;17.07;;;6.43;;
4597;SDS011;62772;48.646;8.906;2023-05-27T11:32:37;18.37;;;7.57;;
4597;SDS011;62772;48.646;8.906;2023-05-27T11:37:38;10.80;;;6.43;;
4597;SDS011;62772;48.646;8.906;2023-05-27T11:42:42;16.47;;;6.30;;
4597;SDS011;62772;48.646;8.906;2023-05-27T11:47:45;10.73;;;6.50;;
4597;SDS011;62772;48.646;8.906;2023-05-27T11:52:54;13.60;;;6.67;;
4597;SDS011;62772;48.646;8.906;2023-05-27T11:57:56;13.77;;;6.80;;
4597;SDS011;62772;48.646;8.906;2023-05-27T12:02:56;11.97;;;6.27;;
4597;SDS011;62772;48.646;8.906;2023-05-27T12:07:57;14.93;;;6.80;;
4597;SDS011;62772;48.646;8.906;2023-05-27T12:13:03;12.43;;;6.63;;
4597;SDS011;62772;48.646;8.906;2023-05-27T12:18:05;15.17;;;6.73;;
4597;SDS011;62772;48.646;8.906;2023-05-27T12:23:05;11.27;;;6.30;;
4597;SDS011;62772;48.646;8.906;2023-05-27T12:28:09;15.07;;;7.13;;
4597;SDS011;62772;48.646;8.906;2023-05-27T12:33:10;12.23;;;6.70;;
4597;SDS011;62772;48.646;8.906;2023-05-27T12:38:10;10.70;;;6.30;;
4597;SDS011;62772;48.646;8.906;2023-05-27T12:43:10;11.77;;;6.90;;
4597;SDS011;62772;48.646;8.906;2023-05-27T12:48:11;14.83;;;6.73;;
4597;SDS011;62772;48.646;8.906;2023-05-27T12:53:12;14.97;;;7.33;;
4597;SDS011;62772;48.646;8.906;2023-05-27T12:58:13;15.10;;;6.57;;
4597;SDS011;62772;48.646;8.906;2023-05-27T13:03:13;11.40;;;6.37;;
4597;SDS011;62772;48.646;8.906;2023-05-27T13:08:14;22.77;;;6.97;;
4597;SDS011;62772;48.646;8.906;2023-05-27T13:13:14;13.87;;;5.93;;
4597;SDS011;62772;48.646;8.906;2023-05-27T13:18:15;9.70;;;6.17;;
4597;SDS011;62772;48.646;8.906;2023-05-27T13:23:15;12.10;;;6.97;;
4597;SDS011;62772;48.646;8.906;2023-05-27T13:28:16;11.30;;;5.90;;
4597;SDS011;62772;48.646;8.906;2023-05-27T13:33:17;10.60;;;6.13;;
4597;SDS011;62772;48.646;8.906;2023-05-27T13:38:17;11.60;;;5.97;;
4597;SDS011;62772;48.646;8.906;2023-05-27T13:43:18;14.37;;;6.73;;
4597;SDS011;62772;48.646;8.906;2023-05-27T13:48:18;11.20;;;6.35;;
4597;SDS011;62772;48.646;8.906;2023-05-27T13:53:20;14.17;;;7.10;;
4597;SDS011;62772;48.646;8.906;2023-05-27T13:58:20;14.27;;;7.27;;
4597;SDS011;62772;48.646;8.906;2023-05-27T14:03:21;13.97;;;6.37;;
4597;SDS011;62772;48.646;8.906;2023-05-27T14:08:22;11.57;;;6.47;;
4597;SDS011;62772;48.646;8.906;2023-05-27T14:13:23;12.90;;;6.67;;
4597;SDS011;62772;48.646;8.906;2023-05-27T14:18:24;13.63;;;6.70;;
4597;SDS011;62772;48.646;8.906;2023-05-27T14:23:24;12.23;;;6.57;;
4597;SDS011;62772;48.646;8.906;2023-05-27T14:28:25;14.57;;;6.73;;
4597;SDS011;62772;48.646;8.906;2023-05-27T14:33:26;10.90;;;6.60;;
4597;SDS011;62772;48.646;8.906;2023-05-27T14:38:26;11.60;;;6.93;;
4597;SDS011;62772;48.646;8.906;2023-05-27T14:43:27;12.50;;;6.60;;
4597;SDS011;62772;48.646;8.906;2023-05-27T14:48:27;12.77;;;7.10;;
4597;SDS011;62772;48.646;8.906;2023-05-27T14:53:27;13.83;;;6.33;;
4597;SDS011;62772;48.646;8.906;2023-05-27T14:58:28;11.30;;;5.90;;
4597;SDS011;62772;48.646;8.906;2023-05-27T15:03:28;13.13;;;6.00;;
4597;SDS011;62772;48.646;8.906;2023-05-27T15:08:30;12.43;;;5.30;;
4597;SDS011;62772;48.646;8.906;2023-05-27T15:13:31;10.93;;;5.23;;
4597;SDS011;62772;48.646;8.906;2023-05-27T15:18:31;12.60;;;5.60;;
4597;SDS011;62772;48.646;8.906;2023-05-27T15:23:33;9.93;;;5.23;;
4597;SDS011;62772;48.646;8.906;2023-05-27T15:28:34;13.60;;;6.83;;
4597;SDS011;62772;48.646;8.906;2023-05-27T15:33:34;10.80;;;5.73;;
4597;SDS011;62772;48.646;8.906;2023-05-27T15:38:35;10.80;;;5.80;;
4597;SDS011;62772;48.646;8.906;2023-05-27T15:43:35;12.93;;;5.60;;
4597;SDS011;62772;48.646;8.906;2023-05-27T15:48:36;15.87;;;5.23;;
4597;SDS011;62772;48.646;8.906;2023-05-27T15:53:37;11.63;;;4.73;;
4597;SDS011;62772;48.646;8.906;2023-05-27T15:58:37;12.00;;;6.17;;
4597;SDS011;62772;48.646;8.906;2023-05-27T16:03:37;9.57;;;4.63;;
4597;SDS011;62772;48.646;8.906;2023-05-27T16:08:38;12.67;;;7.00;;
4597;SDS011;62772;48.646;8.906;2023-05-27T16:13:38;10.17;;;4.80;;
4597;SDS011;62772;48.646;8.906;2023-05-27T16:18:39;8.33;;;4.50;;
4597;SDS011;62772;48.646;8.906;2023-05-27T16:23:40;9.50;;;4.70;;
4597;SDS011;62772;48.646;8.906;2023-05-27T16:28:40;11.53;;;4.27;;
4597;SDS011;62772;48.646;8.906;2023-05-27T16:33:41;11.53;;;4.60;;
4597;SDS011;62772;48.646;8.906;2023-05-27T16:38:42;8.95;;;4.43;;
4597;SDS011;62772;48.646;8.906;2023-05-27T16:43:42;13.70;;;4.67;;
4597;SDS011;62772;48.646;8.906;2023-05-27T16:48:43;9.73;;;4.47;;
4597;SDS011;62772;48.646;8.906;2023-05-27T16:53:43;7.37;;;4.50;;
4597;SDS011;62772;48.646;8.906;2023-05-27T16:58:43;9.50;;;3.80;;
4597;SDS011;62772;48.646;8.906;2023-05-27T17:03:44;15.95;;;3.95;;
4597;SDS011;62772;48.646;8.906;2023-05-27T17:08:44;6.95;;;3.50;;
4597;SDS011;62772;48.646;8.906;2023-05-27T17:13:45;6.53;;;3.80;;
4597;SDS011;62772;48.646;8.906;2023-05-27T17:18:46;8.98;;;4.32;;
4597;SDS011;62772;48.646;8.906;2023-05-27T17:23:46;10.23;;;4.30;;
4597;SDS011;62772;48.646;8.906;2023-05-27T17:28:47;8.63;;;3.80;;
4597;SDS011;62772;48.646;8.906;2023-05-27T17:33:47;16.73;;;4.75;;
4597;SDS011;62772;48.646;8.906;2023-05-27T17:38:48;10.17;;;4.00;;
4597;SDS011;62772;48.646;8.906;2023-05-27T17:43:48;8.37;;;3.90;;
4597;SDS011;62772;48.646;8.906;2023-05-27T17:48:49;7.67;;;3.80;;
4597;SDS011;62772;48.646;8.906;2023-05-27T17:53:49;13.77;;;4.32;;
4597;SDS011;62772;48.646;8.906;2023-05-27T17:58:52;8.60;;;4.00;;
4597;SDS011;62772;48.646;8.906;2023-05-27T18:03:53;8.53;;;4.13;;
4597;SDS011;62772;48.646;8.906;2023-05-27T18:08:53;9.50;;;4.10;;
4597;SDS011;62772;48.646;8.906;2023-05-27T18:13:54;6.85;;;4.03;;
4597;SDS011;62772;48.646;8.906;2023-05-27T18:18:54;6.73;;;3.53;;
4597;SDS011;62772;48.646;8.906;2023-05-27T18:23:54;9.00;;;3.83;;
4597;SDS011;62772;48.646;8.906;2023-05-27T18:28:55;12.77;;;3.47;;
4597;SDS011;62772;48.646;8.906;2023-05-27T18:33:56;9.80;;;3.67;;
4597;SDS011;62772;48.646;8.906;2023-05-27T18:38:56;13.23;;;4.63;;
4597;SDS011;62772;48.646;8.906;2023-05-27T18:43:57;5.43;;;3.30;;
4597;SDS011;62772;48.646;8.906;2023-05-27T18:48:57;9.53;;;4.17;;
4597;SDS011;62772;48.646;8.906;2023-05-27T18:53:57;8.50;;;4.10;;
4597;SDS011;62772;48.646;8.906;2023-05-27T18:58:58;7.33;;;4.03;;
4597;SDS011;62772;48.646;8.906;2023-05-27T19:03:58;9.23;;;4.07;;
4597;SDS011;62772;48.646;8.906;2023-05-27T19:08:59;8.80;;;3.87;;
4597;SDS011;62772;48.646;8.906;2023-05-27T19:14:00;8.20;;;3.77;;
4597;SDS011;62772;48.646;8.906;2023-05-27T19:19:01;5.53;;;3.37;;
4597;SDS011;62772;48.646;8.906;2023-05-27T19:24:01;8.07;;;4.20;;
4597;SDS011;62772;48.646;8.906;2023-05-27T19:29:02;10.43;;;4.77;;
4597;SDS011;62772;48.646;8.906;2023-05-27T19:34:02;8.67;;;4.30;;
4597;SDS011;62772;48.646;8.906;2023-05-27T19:39:03;7.73;;;4.30;;
4597;SDS011;62772;48.646;8.906;2023-05-27T19:44:03;8.80;;;4.00;;
4597;SDS011;62772;48.646;8.906;2023-05-27T19:49:04;12.10;;;4.17;;
4597;SDS011;62772;48.646;8.906;2023-05-27T19:54:04;10.90;;;4.50;;
4597;SDS011;62772;48.646;8.906;2023-05-27T19:59:05;11.70;;;4.87;;
4597;SDS011;62772;48.646;8.906;2023-05-27T20:04:05;9.13;;;4.63;;
4597;SDS011;62772;48.646;8.906;2023-05-27T20:09:06;7.53;;;4.60;;
4597;SDS011;62772;48.646;8.906;2023-05-27T20:14:06;9.93;;;5.03;;
4597;SDS011;62772;48.646;8.906;2023-05-27T20:19:08;8.20;;;4.70;;
4597;SDS011;62772;48.646;8.906;2023-05-27T20:24:08;13.90;;;5.37;;
4597;SDS011;62772;48.646;8.906;2023-05-27T20:29:09;10.87;;;5.47;;
4597;SDS011;62772;48.646;8.906;2023-05-27T20:34:09;9.97;;;5.20;;
4597;SDS011;62772;48.646;8.906;2023-05-27T20:39:10;11.23;;;5.80;;
4597;SDS011;62772;48.646;8.906;2023-05-27T20:44:10;11.37;;;4.97;;
4597;SDS011;62772;48.646;8.906;2023-05-27T20:49:11;9.77;;;5.50;;
4597;SDS011;62772;48.646;8.906;2023-05-27T20:54:11;10.67;;;6.60;;
4597;SDS011;62772;48.646;8.906;2023-05-27T20:59:11;12.53;;;6.70;;
4597;SDS011;62772;48.646;8.906;2023-05-27T21:04:12;9.70;;;5.23;;
4597;SDS011;62772;48.646;8.906;2023-05-27T21:09:12;12.03;;;5.60;;
4597;SDS011;62772;48.646;8.906;2023-05-27T21:14:13;10.33;;;5.40;;
4597;SDS011;62772;48.646;8.906;2023-05-27T21:19:13;11.43;;;5.50;;
4597;SDS011;62772;48.646;8.906;2023-05-27T21:24:14;9.60;;;5.37;;
4597;SDS011;62772;48.646;8.906;2023-05-27T21:29:15;8.80;;;4.93;;
4597;SDS011;62772;48.646;8.906;2023-05-27T21:34:15;14.00;;;4.90;;
4597;SDS011;62772;48.646;8.906;2023-05-27T21:39:15;9.10;;;5.27;;
4597;SDS011;62772;48.646;8.906;2023-05-27T21:44:16;8.77;;;4.70;;
4597;SDS011;62772;48.646;8.906;2023-05-27T21:49:16;8.97;;;4.83;;
4597;SDS011;62772;48.646;8.906;2023-05-27T21:54:17;12.63;;;4.87;;
4597;SDS011;62772;48.646;8.906;2023-05-27T21:59:17;11.83;;;4.80;;
4597;SDS011;62772;48.646;8.906;2023-05-27T22:04:18;11.83;;;4.93;;
4597;SDS011;62772;48.646;8.906;2023-05-27T22:09:18;10.50;;;5.77;;
4597;SDS011;62772;48.646;8.906;2023-05-27T22:14:20;9.80;;;5.47;;
4597;SDS011;62772;48.646;8.906;2023-05-27T22:19:20;9.03;;;5.73;;
4597;SDS011;62772;48.646;8.906;2023-05-27T22:24:20;13.33;;;5.80;;
4597;SDS011;62772;48.646;8.906;2023-05-27T22:29:21;9.27;;;5.70;;
4597;SDS011;62772;48.646;8.906;2023-05-27T22:34:21;11.83;;;6.03;;
4597;SDS011;62772;48.646;8.906;2023-05-27T22:39:22;12.50;;;5.47;;
4597;SDS011;62772;48.646;8.906;2023-05-27T22:44:22;12.50;;;5.47;;
4597;SDS011;62772;48.646;8.906;2023-05-27T22:49:23;10.90;;;5.50;;
4597;SDS011;62772;48.646;8.906;2023-05-27T22:54:23;8.57;;;5.07;;
4597;SDS011;62772;48.646;8.906;2023-05-27T22:59:24;13.10;;;5.93;;
4597;SDS011;62772;48.646;8.906;2023-05-27T23:04:25;10.67;;;5.63;;
4597;SDS011;62772;48.646;8.906;2023-05-27T23:09:26;10.37;;;5.40;;
4597;SDS011;62772;48.646;8.906;2023-05-27T23:14:26;9.67;;;5.20;;
4597;SDS011;62772;48.646;8.906;2023-05-27T23:19:27;9.70;;;5.30;;
4597;SDS011;62772;48.646;8.906;2023-05-27T23:24:29;12.00;;;5.80;;
4597;SDS011;62772;48.646;8.906;2023-05-27T23:29:29;11.00;;;5.00;;
4597;SDS011;62772;48.646;8.906;2023-05-27T23:34:30;15.00;;;6.23;;
4597;SDS011;62772;48.646;8.906;2023-05-27T23:39:30;12.10;;;6.50;;
4597;SDS011;62772;48.646;8.906;2023-05-27T23:44:31;11.20;;;5.73;;
4597;SDS011;62772;48.646;8.906;2023-05-27T23:49:31;10.00;;;5.43;;
4597;SDS011;62772;48.646;8.906;2023-05-27T23:54:31;10.40;;;5.63;;
4597;SDS011;62772;48.646;8.906;2023-05-27T23:59:33;12.83;;;6.27;;
